Time;durP1;ratioP1;P1;durP2;ratioP2;P2;SDS_P1;SDS_P2;PMS_P1;PMS_P2;Temp;Humidity;BMP_temperature;BMP_pressure;BME280_temperature;BME280_humidity;BME280_pressure;Samples;Min_cycle;Max_cycle;Signal;HPM_P1;HPM_P2
2021/10/04 00:00:40;;;;;;;1999.90;999.90;;;;;;;11.71;100.00;100061.66;5092563;28;20027;-40
2021/10/04 00:03:06;;;;;;;1999.90;999.90;;;;;;;11.73;100.00;100064.91;5092866;28;20020;-39
2021/10/04 00:05:31;;;;;;;1999.90;999.90;;;;;;;11.69;100.00;100062.97;5092444;28;20491;-40
2021/10/04 00:07:57;;;;;;;1999.90;999.90;;;;;;;11.70;100.00;100054.72;5092469;28;20028;-40
2021/10/04 00:10:23;;;;;;;1999.90;999.90;;;;;;;11.73;100.00;100056.91;5092659;28;20507;-39
2021/10/04 00:12:49;;;;;;;1999.90;999.90;;;;;;;11.69;100.00;100058.44;5092333;28;20024;-39
2021/10/04 00:15:18;;;;;;;1999.90;999.90;;;;;;;11.66;100.00;100050.91;5092347;28;20028;-40
2021/10/04 00:17:44;;;;;;;1999.90;999.90;;;;;;;11.61;100.00;100044.69;5092298;28;20031;-40
2021/10/04 00:20:12;;;;;;;1999.90;999.90;;;;;;;11.59;100.00;100044.13;5092203;28;20020;-40
2021/10/04 00:22:39;;;;;;;1999.90;999.90;;;;;;;11.58;100.00;100050.50;5091951;28;20108;-39
2021/10/04 00:25:07;;;;;;;1999.90;999.90;;;;;;;11.55;100.00;100044.59;5092146;28;20028;-39
2021/10/04 00:27:32;;;;;;;1999.90;999.90;;;;;;;11.54;100.00;100044.84;5091447;28;20032;-40
2021/10/04 00:30:05;;;;;;;1999.90;999.90;;;;;;;11.49;100.00;100039.41;5092078;28;20030;-39
2021/10/04 00:32:35;;;;;;;1999.90;999.90;;;;;;;11.47;100.00;100036.19;5092066;28;20036;-40
2021/10/04 00:35:00;;;;;;;1999.90;999.90;;;;;;;11.49;100.00;100039.41;5092359;28;20032;-40
2021/10/04 00:37:26;;;;;;;1999.90;999.90;;;;;;;11.47;100.00;100041.53;5092059;28;20389;-40
2021/10/04 00:39:52;;;;;;;1999.90;999.90;;;;;;;11.41;100.00;100034.47;5091967;28;20104;-38
2021/10/04 00:42:21;;;;;;;1999.90;999.90;;;;;;;11.38;100.00;100035.78;5091983;28;20020;-40
2021/10/04 00:44:51;;;;;;;1999.90;999.90;;;;;;;11.38;100.00;100036.56;5091788;28;20071;-39
2021/10/04 00:47:17;;;;;;;1999.90;999.90;;;;;;;11.31;100.00;100043.91;5092214;28;20023;-39
2021/10/04 00:49:43;;;;;;;1999.90;999.90;;;;;;;11.34;100.00;100040.75;5091812;28;20024;-38
2021/10/04 00:52:09;;;;;;;1999.90;999.90;;;;;;;11.35;100.00;100034.38;5091889;28;20072;-39
2021/10/04 00:54:36;;;;;;;1999.90;999.90;;;;;;;11.34;100.00;100032.75;5092149;28;20036;-40
2021/10/04 00:57:02;;;;;;;1999.90;999.90;;;;;;;11.30;100.00;100034.28;5091832;28;20385;-40
2021/10/04 00:59:27;;;;;;;1999.90;999.90;;;;;;;11.30;100.00;100036.16;5091775;28;20092;-39
2021/10/04 01:01:53;;;;;;;1999.90;999.90;;;;;;;11.34;100.00;100037.28;5091818;28;20024;-39
2021/10/04 01:04:25;;;;;;;1999.90;999.90;;;;;;;11.31;100.00;100027.91;5091609;28;20106;-40
2021/10/04 01:06:52;;;;;;;1999.90;999.90;;;;;;;11.30;100.00;100030.81;5091742;28;20043;-38
2021/10/04 01:09:18;;;;;;;1999.90;999.90;;;;;;;11.28;100.00;100028.38;5091623;28;20024;-40
2021/10/04 01:11:44;;;;;;;1999.90;999.90;;;;;;;11.17;100.00;100027.41;5091715;28;20027;-40
2021/10/04 01:14:10;;;;;;;1999.90;999.90;;;;;;;11.16;100.00;100028.44;5091691;28;20090;-37
2021/10/04 01:16:36;;;;;;;1999.90;999.90;;;;;;;11.08;100.00;100028.03;5091697;28;20031;-39
2021/10/04 01:19:02;;;;;;;1999.90;999.90;;;;;;;11.11;100.00;100032.88;5091560;28;20099;-40
2021/10/04 01:21:28;;;;;;;1999.90;999.90;;;;;;;11.09;100.00;100027.78;5091640;28;20035;-39
2021/10/04 01:23:53;;;;;;;1999.90;999.90;;;;;;;10.94;100.00;100025.66;5091414;28;20036;-38
2021/10/04 01:26:20;;;;;;;1999.90;999.90;;;;;;;10.97;100.00;100025.16;5091906;28;20476;-38
2021/10/04 01:28:46;;;;;;;1999.90;999.90;;;;;;;10.88;100.00;100023.94;5091862;28;20099;-39
2021/10/04 01:31:12;;;;;;;1999.90;999.90;;;;;;;10.90;100.00;100027.16;5091503;28;20020;-39
2021/10/04 01:33:38;;;;;;;1999.90;999.90;;;;;;;10.98;100.00;100026.78;5091532;28;20085;-40
2021/10/04 01:36:04;;;;;;;1999.90;999.90;;;;;;;10.95;100.00;100029.94;5092242;28;20123;-38
2021/10/04 01:38:30;;;;;;;1999.90;999.90;;;;;;;10.91;100.00;100039.47;5093461;28;20112;-39
2021/10/04 01:40:56;;;;;;;1999.90;999.90;;;;;;;10.89;100.00;100033.53;5095178;28;20506;-40
2021/10/04 01:43:22;;;;;;;1999.90;999.90;;;;;;;10.90;100.00;100029.03;5095246;28;20075;-38
2021/10/04 01:45:48;;;;;;;1999.90;999.90;;;;;;;10.92;100.00;100033.06;5095350;28;20121;-40
2021/10/04 01:48:14;;;;;;;1999.90;999.90;;;;;;;10.93;100.00;100031.22;5095417;28;20468;-40
2021/10/04 01:50:39;;;;;;;1999.90;999.90;;;;;;;10.91;100.00;100034.13;5095344;28;20369;-40
2021/10/04 01:53:07;;;;;;;1999.90;999.90;;;;;;;10.94;100.00;100028.31;5095329;28;20501;-39
2021/10/04 01:55:33;;;;;;;1999.90;999.90;;;;;;;10.92;100.00;100029.59;5094972;28;20024;-39
2021/10/04 01:57:59;;;;;;;1999.90;999.90;;;;;;;10.92;100.00;100024.25;5095360;28;20035;-39
2021/10/04 02:00:25;;;;;;;1999.90;999.90;;;;;;;10.92;100.00;100025.06;5095133;28;20047;-40
2021/10/04 02:02:54;;;;;;;1999.90;999.90;;;;;;;10.90;100.00;100023.69;5095171;28;20028;-40
2021/10/04 02:05:20;;;;;;;1999.90;999.90;;;;;;;10.85;100.00;100027.88;5095006;28;20040;-38
2021/10/04 02:07:48;;;;;;;1999.90;999.90;;;;;;;10.82;100.00;100028.38;5094743;28;20039;-39
2021/10/04 02:10:18;;;;;;;1999.90;999.90;;;;;;;10.86;100.00;100026.00;5094893;28;20028;-39
2021/10/04 02:12:45;;;;;;;1999.90;999.90;;;;;;;10.92;100.00;100030.41;5094648;28;20024;-39
2021/10/04 02:15:12;;;;;;;1999.90;999.90;;;;;;;10.92;100.00;100032.25;5094591;28;20035;-36
2021/10/04 02:17:39;;;;;;;1999.90;999.90;;;;;;;10.94;100.00;100028.31;5094838;28;20032;-39
2021/10/04 02:20:06;;;;;;;1999.90;999.90;;;;;;;10.87;100.00;100035.63;5094424;28;20020;-37
2021/10/04 02:22:32;;;;;;;1999.90;999.90;;;;;;;10.91;100.00;100030.63;5094195;28;20051;-40
2021/10/04 02:24:58;;;;;;;1999.90;999.90;;;;;;;10.87;100.00;100034.84;5094368;28;20020;-38
2021/10/04 02:27:24;;;;;;;1999.90;999.90;;;;;;;10.85;100.00;100033.22;5094375;28;20028;-39
2021/10/04 02:29:49;;;;;;;1999.90;999.90;;;;;;;10.89;100.00;100041.53;5094253;28;20028;-38
2021/10/04 02:32:15;;;;;;;1999.90;999.90;;;;;;;10.88;100.00;100033.78;5094550;28;20024;-37
2021/10/04 02:34:41;;;;;;;1999.90;999.90;;;;;;;10.87;100.00;100032.97;5094286;28;20428;-39
2021/10/04 02:37:06;;;;;;;1999.90;999.90;;;;;;;10.84;100.00;100028.13;5094179;28;20024;-38
2021/10/04 02:39:32;;;;;;;1999.90;999.90;;;;;;;10.82;100.00;100031.03;5094141;28;20115;-38
2021/10/04 02:41:58;;;;;;;1999.90;999.90;;;;;;;10.81;100.00;100031.25;5094019;28;20292;-39
2021/10/04 02:44:23;;;;;;;1999.90;999.90;;;;;;;10.73;100.00;100032.44;5094265;28;20043;-38
2021/10/04 02:46:49;;;;;;;1999.90;999.90;;;;;;;10.75;100.00;100034.88;5092738;28;20511;-39
2021/10/04 02:49:15;;;;;;;1999.90;999.90;;;;;;;10.78;100.00;100034.41;5093452;28;20118;-39
2021/10/04 02:51:41;;;;;;;1999.90;999.90;;;;;;;10.75;100.00;100038.34;5093516;28;20028;-40
2021/10/04 02:54:06;;;;;;;1999.90;999.90;;;;;;;10.78;100.00;100034.41;5094159;28;20511;-37
2021/10/04 02:56:32;;;;;;;1999.90;999.90;;;;;;;10.79;100.00;100041.34;5093766;28;20020;-39
2021/10/04 02:58:57;;;;;;;1999.90;999.90;;;;;;;10.76;100.00;100031.16;5093740;28;20036;-38
2021/10/04 03:01:23;;;;;;;1999.90;999.90;;;;;;;10.77;100.00;100032.78;5093935;28;20055;-39
2021/10/04 03:03:49;;;;;;;1999.90;999.90;;;;;;;10.78;100.00;100035.22;5093642;28;20168;-40
2021/10/04 03:06:14;;;;;;;1999.90;999.90;;;;;;;10.74;100.00;100043.91;5093593;28;20073;-39
2021/10/04 03:08:40;;;;;;;1999.90;999.90;;;;;;;10.73;100.00;100043.09;5093880;28;20028;-39
2021/10/04 03:11:06;;;;;;;1999.90;999.90;;;;;;;10.75;100.00;100057.00;5093470;28;20479;-39
2021/10/04 03:13:32;;;;;;;1999.90;999.90;;;;;;;10.64;100.00;100049.84;5093510;28;20032;-39
2021/10/04 03:15:58;;;;;;;1999.90;999.90;;;;;;;10.64;100.00;100060.50;5093742;28;20028;-39
2021/10/04 03:18:23;;;;;;;1999.90;999.90;;;;;;;10.59;100.00;100055.09;5093689;28;20518;-40
2021/10/04 03:20:49;;;;;;;1999.90;999.90;;;;;;;10.60;100.00;100049.50;5093303;28;20499;-39
2021/10/04 03:23:15;;;;;;;1999.90;999.90;;;;;;;10.59;100.00;100044.41;5093298;28;20139;-39
2021/10/04 03:25:41;;;;;;;1999.90;999.90;;;;;;;10.67;100.00;100052.84;5093446;28;20408;-39
2021/10/04 03:28:07;;;;;;;1999.90;999.90;;;;;;;10.64;100.00;100052.50;5093494;28;20024;-39
2021/10/04 03:30:33;;;;;;;1999.90;999.90;;;;;;;10.61;100.00;100045.78;5093032;28;20027;-40
2021/10/04 03:33:01;;;;;;;1999.90;999.90;;;;;;;10.60;100.00;100054.84;5093110;28;20025;-39
2021/10/04 03:35:27;;;;;;;1999.90;999.90;;;;;;;10.61;100.00;100044.97;5093001;28;20522;-39
2021/10/04 03:37:53;;;;;;;1999.90;999.90;;;;;;;10.61;100.00;100045.78;5092996;28;20027;-39
2021/10/04 03:40:19;;;;;;;1999.90;999.90;;;;;;;10.52;100.00;100041.88;5092901;28;20036;-38
2021/10/04 03:42:45;;;;;;;1999.90;999.90;;;;;;;10.46;100.00;100048.94;5092939;28;20089;-39
2021/10/04 03:45:12;;;;;;;1999.90;999.90;;;;;;;10.48;100.00;100046.88;5092676;28;20044;-40
2021/10/04 03:47:39;;;;;;;1999.90;999.90;;;;;;;10.47;100.00;100044.44;5092789;28;20028;-40
2021/10/04 03:50:07;;;;;;;1999.90;999.90;;;;;;;10.42;100.00;100047.78;5093851;28;20032;-39
2021/10/04 03:52:34;;;;;;;1999.90;999.90;;;;;;;10.45;100.00;100043.84;5092673;28;20028;-39
2021/10/04 03:55:00;;;;;;;1999.90;999.90;;;;;;;10.45;100.00;100038.53;5092984;28;20054;-40
2021/10/04 03:57:26;;;;;;;1999.90;999.90;;;;;;;10.40;100.00;100039.22;5092646;28;20480;-40
2021/10/04 03:59:51;;;;;;;1999.90;999.90;;;;;;;10.37;100.00;100041.56;5092610;28;20031;-39
2021/10/04 04:02:17;;;;;;;1999.90;999.90;;;;;;;10.38;100.00;100045.84;5092485;28;20024;-40
2021/10/04 04:04:43;;;;;;;1999.90;999.90;;;;;;;10.32;100.00;100047.53;5093268;28;20036;-38
2021/10/04 04:07:08;;;;;;;1999.90;999.90;;;;;;;10.27;100.00;100034.13;5092493;28;20103;-38
2021/10/04 04:09:35;;;;;;;1999.90;999.90;;;;;;;10.37;100.00;100049.56;5092746;28;20092;-40
2021/10/04 04:12:01;;;;;;;1999.90;999.90;;;;;;;10.38;100.00;100041.34;5092332;28;20039;-40
2021/10/04 04:14:27;;;;;;;1999.90;999.90;;;;;;;10.37;100.00;100038.91;5092654;28;20032;-37
2021/10/04 04:16:52;;;;;;;1999.90;999.90;;;;;;;10.44;100.00;100043.06;5092320;28;20496;-40
2021/10/04 04:19:18;;;;;;;1999.90;999.90;;;;;;;10.46;100.00;100054.28;5092588;28;20021;-37
2021/10/04 04:21:44;;;;;;;1999.90;999.90;;;;;;;10.46;100.00;100046.28;5092159;28;20031;-39
2021/10/04 04:24:10;;;;;;;1999.90;999.90;;;;;;;10.46;100.00;100056.13;5092042;28;20058;-39
2021/10/04 04:26:35;;;;;;;;;;;;;;;10.42;100.00;100054.97;5092662;28;20039;-39
2021/10/04 04:29:01;;;;;;;1999.90;999.90;;;;;;;10.44;100.00;100063.53;5092136;28;19912;-39
2021/10/04 04:31:27;;;;;;;1999.90;999.90;;;;;;;10.44;100.00;100060.88;5092089;28;20215;-38
2021/10/04 04:33:52;;;;;;;1999.90;999.90;;;;;;;10.42;100.00;100058.44;5092116;28;20031;-39
2021/10/04 04:36:18;;;;;;;1999.90;999.90;;;;;;;10.52;100.00;100060.53;5092055;28;20028;-38
2021/10/04 04:38:44;;;;;;;1999.90;999.90;;;;;;;10.58;100.00;100066.78;5091975;28;20032;-38
2021/10/04 04:41:10;;;;;;;1999.90;999.90;;;;;;;10.64;100.00;100071.16;5092549;28;20174;-39
2021/10/04 04:43:36;;;;;;;1999.90;999.90;;;;;;;10.68;100.00;100074.97;5092009;28;20165;-40
2021/10/04 04:46:01;;;;;;;1999.90;999.90;;;;;;;10.81;100.00;100072.06;5091858;28;20043;-40
2021/10/04 04:48:28;;;;;;;1999.90;999.90;;;;;;;10.94;100.00;100078.16;5092231;28;20032;-36
2021/10/04 04:50:54;;;;;;;1999.90;999.90;;;;;;;11.06;100.00;100065.59;5091890;28;20028;-39
2021/10/04 04:53:20;;;;;;;1999.90;999.90;;;;;;;11.24;100.00;100071.78;5092209;28;20153;-37
2021/10/04 04:55:46;;;;;;;1999.90;999.90;;;;;;;11.50;100.00;100076.53;5091852;28;20483;-40
2021/10/04 04:58:12;;;;;;;1999.90;999.90;;;;;;;11.77;100.00;100072.44;5091867;28;20020;-38
2021/10/04 05:00:37;;;;;;;1999.90;999.90;;;;;;;12.03;100.00;100073.69;5091801;28;20035;-39
2021/10/04 05:03:06;;;;;;;1999.90;999.90;;;;;;;12.36;100.00;100074.66;5091867;28;20052;-39
2021/10/04 05:05:32;;;;;;;1999.90;999.90;;;;;;;12.58;100.00;100080.03;5091999;28;20036;-39
2021/10/04 05:07:57;;;;;;;1999.90;999.90;;;;;;;12.87;100.00;100083.34;5091826;28;20392;-39
2021/10/04 05:10:23;;;;;;;1999.90;999.90;;;;;;;13.14;100.00;100071.91;5091703;28;20020;-38
2021/10/04 05:12:49;;;;;;;1999.90;999.90;;;;;;;13.42;100.00;100080.75;5092321;28;20106;-38
2021/10/04 05:15:15;;;;;;;1999.90;999.90;;;;;;;13.59;100.00;100070.72;5095759;28;20035;-39
2021/10/04 05:17:41;;;;;;;1999.90;999.90;;;;;;;13.77;100.00;100076.78;5096028;28;20085;-39
2021/10/04 05:20:09;;;;;;;1999.90;999.90;;;;;;;14.03;100.00;100079.66;5095697;28;20042;-40
2021/10/04 05:22:38;;;;;;;1999.90;999.90;;;;;;;14.13;100.00;100077.84;5095560;28;20102;-40
2021/10/04 05:25:05;;;;;;;1999.90;999.90;;;;;;;14.27;100.00;100074.72;5095852;28;20134;-39
2021/10/04 05:27:32;;;;;;;1999.90;999.90;;;;;;;14.43;100.00;100083.66;5095544;28;20024;-38
2021/10/04 05:29:58;;;;;;;1999.90;999.90;;;;;;;14.55;100.00;100088.81;5095059;28;20036;-40
2021/10/04 05:32:24;;;;;;;1999.90;999.90;;;;;;;14.67;100.00;100089.44;5095253;28;20039;-39
2021/10/04 05:34:50;;;;;;;;;;;;;;;14.82;100.00;100086.81;5095909;28;20040;-39
2021/10/04 05:37:16;;;;;;;1999.90;999.90;;;;;;;14.88;100.00;100095.69;5095328;28;19995;-40
2021/10/04 05:39:41;;;;;;;1999.90;999.90;;;;;;;15.00;100.00;100096.28;5095610;28;20081;-38
2021/10/04 05:42:08;;;;;;;1999.90;999.90;;;;;;;15.14;100.00;100093.91;5095530;28;20401;-39
2021/10/04 05:44:34;;;;;;;1999.90;999.90;;;;;;;15.25;100.00;100094.72;5095465;28;20412;-38
2021/10/04 05:46:59;;;;;;;;;;;;;;;15.40;100.00;100102.00;5095545;28;20056;-40
2021/10/04 05:49:25;;;;;;;1999.90;999.90;;;;;;;15.48;100.00;100104.19;5095075;28;19942;-40
2021/10/04 05:51:51;;;;;;;1999.90;999.90;;;;;;;15.62;100.00;100107.16;5095360;28;20082;-40
2021/10/04 05:54:17;;;;;;;1999.90;999.90;;;;;;;15.90;100.00;100108.53;5095047;28;20488;-39
2021/10/04 05:56:42;;;;;;;1999.90;999.90;;;;;;;15.96;100.00;100109.34;5095299;28;20024;-39
2021/10/04 05:59:08;;;;;;;1999.90;999.90;;;;;;;16.23;100.00;100109.03;5094948;28;20416;-40
2021/10/04 06:01:34;;;;;;;1999.90;999.90;;;;;;;16.35;100.00;100110.66;5094859;28;20106;-40
2021/10/04 06:03:59;;;;;;;1999.90;999.90;;;;;;;16.67;96.48;100117.56;5095080;28;20060;-40
2021/10/04 06:06:25;;;;;;;1999.90;999.90;;;;;;;16.70;95.58;100120.50;5094792;28;20381;-40
2021/10/04 06:08:51;;;;;;;1999.90;999.90;;;;;;;16.82;92.71;100117.50;5095067;28;20028;-39
2021/10/04 06:11:16;;;;;;;1999.90;999.90;;;;;;;16.84;91.99;100125.28;5094627;28;20054;-40
2021/10/04 06:13:42;;;;;;;1999.90;999.90;;;;;;;16.92;93.85;100130.94;5094656;28;20170;-39
2021/10/04 06:16:08;;;;;;;1999.90;999.90;;;;;;;16.95;92.63;100127.69;5094893;28;20036;-39
2021/10/04 06:18:33;;;;;;;1999.90;999.90;;;;;;;16.88;90.98;100135.25;5094576;28;20495;-40
2021/10/04 06:20:59;;;;;;;1999.90;999.90;;;;;;;16.70;93.92;100138.53;5094788;28;20035;-39
2021/10/04 06:23:25;;;;;;;1999.90;999.90;;;;;;;16.74;93.77;100139.63;5094263;28;20500;-38
2021/10/04 06:25:51;;;;;;;1999.90;999.90;;;;;;;16.74;93.06;100132.34;5093231;28;20065;-39
2021/10/04 06:28:16;;;;;;;1999.90;999.90;;;;;;;16.65;94.01;100130.47;5094334;28;20488;-39
2021/10/04 06:30:42;;;;;;;1999.90;999.90;;;;;;;16.80;93.99;100136.63;5094343;28;20035;-39
2021/10/04 06:33:08;;;;;;;1999.90;999.90;;;;;;;17.18;95.86;100132.72;5094541;28;20020;-40
2021/10/04 06:35:34;;;;;;;1999.90;999.90;;;;;;;17.27;93.47;100125.69;5094247;28;20492;-39
2021/10/04 06:38:01;;;;;;;1999.90;999.90;;;;;;;17.41;92.07;100136.63;5094471;28;20496;-39
2021/10/04 06:40:26;;;;;;;1999.90;999.90;;;;;;;17.46;90.23;100131.22;5094164;28;20054;-40
2021/10/04 06:42:52;;;;;;;1999.90;999.90;;;;;;;17.40;93.08;100126.94;5094012;28;20074;-40
2021/10/04 06:45:18;;;;;;;1999.90;999.90;;;;;;;17.40;91.98;100129.63;5093946;28;20036;-36
2021/10/04 06:47:43;;;;;;;1999.90;999.90;;;;;;;17.20;91.99;100134.06;5094300;28;20107;-40
2021/10/04 06:50:10;;;;;;;1999.90;999.90;;;;;;;16.74;94.45;100131.53;5093969;28;20488;-39
2021/10/04 06:52:38;;;;;;;1999.90;999.90;;;;;;;16.67;95.28;100133.72;5094181;28;20060;-38
2021/10/04 06:55:05;;;;;;;1999.90;999.90;;;;;;;16.61;96.83;100136.41;5094190;28;20024;-40
2021/10/04 06:57:31;;;;;;;1999.90;999.90;;;;;;;16.64;96.39;100136.94;5093817;28;20020;-39
2021/10/04 06:59:57;;;;;;;1999.90;999.90;;;;;;;16.44;97.98;100138.59;5093805;28;20028;-39
2021/10/04 07:02:22;;;;;;;1999.90;999.90;;;;;;;16.53;98.56;100136.97;5093602;28;20028;-39
2021/10/04 07:04:48;;;;;;;1999.90;999.90;;;;;;;16.45;98.81;100134.84;5093612;28;20024;-38
2021/10/04 07:07:14;;;;;;;1999.90;999.90;;;;;;;16.36;98.06;100141.84;5093638;28;20165;-39
2021/10/04 07:09:41;;;;;;;1999.90;999.90;;;;;;;16.19;100.00;100134.06;5093580;28;20027;-38
2021/10/04 07:12:07;;;;;;;1999.90;999.90;;;;;;;16.27;99.97;100133.53;5093462;28;20031;-38
2021/10/04 07:14:33;;;;;;;1999.90;999.90;;;;;;;16.21;100.00;100130.03;5093390;28;20058;-37
2021/10/04 07:16:58;;;;;;;1999.90;999.90;;;;;;;16.26;100.00;100135.38;5093683;28;20170;-38
2021/10/04 07:19:24;;;;;;;1999.90;999.90;;;;;;;16.42;100.00;100138.06;5093549;28;20535;-40
2021/10/04 07:21:53;;;;;;;1999.90;999.90;;;;;;;16.38;100.00;100135.09;5093275;28;20042;-40
2021/10/04 07:24:20;;;;;;;1999.90;999.90;;;;;;;16.48;100.00;100133.50;5093011;28;20043;-38
2021/10/04 07:26:47;;;;;;;1999.90;999.90;;;;;;;16.56;97.50;100136.44;5093241;28;20115;-38
2021/10/04 07:29:14;;;;;;;1999.90;999.90;;;;;;;16.53;98.97;100133.47;5093474;28;20465;-39
2021/10/04 07:31:40;;;;;;;1999.90;999.90;;;;;;;16.10;99.05;100136.47;5093092;28;20045;-38
2021/10/04 07:34:07;;;;;;;1999.90;999.90;;;;;;;15.69;100.00;100141.81;5093138;28;20024;-39
2021/10/04 07:36:34;;;;;;;1999.90;999.90;;;;;;;15.87;100.00;100144.03;5092729;28;20039;-40
2021/10/04 07:39:00;;;;;;;1999.90;999.90;;;;;;;15.85;100.00;100146.16;5093264;28;20020;-38
2021/10/04 07:41:26;;;;;;;1999.90;999.90;;;;;;;15.72;100.00;100150.16;5092891;28;20023;-40
2021/10/04 07:43:51;;;;;;;1999.90;999.90;;;;;;;15.51;99.96;100154.69;5093705;28;20032;-40
2021/10/04 07:46:17;;;;;;;1999.90;999.90;;;;;;;15.73;100.00;100154.44;5092750;28;20024;-39
2021/10/04 07:48:43;;;;;;;1999.90;999.90;;;;;;;15.88;100.00;100147.50;5093172;28;20030;-40
2021/10/04 07:51:11;;;;;;;1999.90;999.90;;;;;;;16.03;100.00;100154.75;5093135;28;20454;-39
2021/10/04 07:53:39;;;;;;;1999.90;999.90;;;;;;;15.94;100.00;100153.69;5092963;28;20036;-37
2021/10/04 07:56:05;;;;;;;1999.90;999.90;;;;;;;15.96;98.55;100154.22;5093003;28;20476;-40
2021/10/04 07:58:31;;;;;;;1999.90;999.90;;;;;;;16.11;100.00;100159.63;5092687;28;20067;-38
2021/10/04 08:00:56;;;;;;;1999.90;999.90;;;;;;;15.92;96.40;100157.44;5092931;28;20419;-39
2021/10/04 08:03:22;;;;;;;1999.90;999.90;;;;;;;16.15;97.51;100160.69;5092799;28;20407;-39
2021/10/04 08:05:48;;;;;;;1999.90;999.90;;;;;;;15.99;99.14;100162.56;5092444;28;20606;-39
2021/10/04 08:08:13;;;;;;;1999.90;999.90;;;;;;;15.92;97.70;100162.03;5092502;28;20020;-38
2021/10/04 08:10:39;;;;;;;1999.90;999.90;;;;;;;15.99;100.00;100161.75;5092778;28;20085;-39
2021/10/04 08:13:05;;;;;;;1999.90;999.90;;;;;;;16.12;100.00;100168.47;5092364;28;20499;-40
2021/10/04 08:15:31;;;;;;;1999.90;999.90;;;;;;;16.05;99.99;100166.06;5092415;28;20028;-40
2021/10/04 08:17:57;;;;;;;1999.90;999.90;;;;;;;15.81;96.31;100168.47;5091087;28;20121;-40
2021/10/04 08:20:23;;;;;;;1999.90;999.90;;;;;;;15.82;100.00;100165.50;5092309;28;20538;-40
2021/10/04 08:22:49;;;;;;;1999.90;999.90;;;;;;;16.05;98.79;100171.44;5091946;28;20052;-38
2021/10/04 08:25:15;;;;;;;1999.90;999.90;;;;;;;16.27;98.16;100169.28;5092180;28;20093;-38
2021/10/04 08:27:41;;;;;;;1999.90;999.90;;;;;;;16.36;97.56;100174.13;5092193;28;20032;-40
2021/10/04 08:30:08;;;;;;;1999.90;999.90;;;;;;;16.25;96.00;100168.75;5092494;28;20036;-38
2021/10/04 08:32:33;;;;;;;1999.90;999.90;;;;;;;16.45;95.25;100169.81;5092070;28;20500;-40
2021/10/04 08:34:59;;;;;;;1999.90;999.90;;;;;;;16.34;88.50;100170.88;5092066;28;20035;-40
2021/10/04 08:37:26;;;;;;;1999.90;999.90;;;;;;;16.24;91.08;100169.81;5092063;28;20026;-40
2021/10/04 08:39:52;;;;;;;1999.90;999.90;;;;;;;16.11;95.17;100165.00;5092012;28;20048;-40
2021/10/04 08:42:19;;;;;;;1999.90;999.90;;;;;;;16.23;96.48;100170.88;5091976;28;20016;-39
2021/10/04 08:44:47;;;;;;;1999.90;999.90;;;;;;;16.09;92.37;100169.81;5092204;28;20056;-39
2021/10/04 08:47:13;;;;;;;1999.90;999.90;;;;;;;16.01;92.72;100165.78;5091483;28;20420;-39
2021/10/04 08:49:39;;;;;;;1999.90;999.90;;;;;;;16.21;90.14;100165.00;5091728;28;20032;-40
2021/10/04 08:52:05;;;;;;;1999.90;999.90;;;;;;;16.43;89.86;100164.69;5091945;28;20035;-40
2021/10/04 08:54:31;;;;;;;1999.90;999.90;;;;;;;16.09;89.20;100161.75;5091945;28;20024;-40
2021/10/04 08:56:57;;;;;;;1999.90;999.90;;;;;;;16.31;90.02;100166.03;5092166;28;20030;-39
2021/10/04 08:59:23;;;;;;;1999.90;999.90;;;;;;;16.32;87.60;100160.41;5091818;28;20024;-40
2021/10/04 09:01:49;;;;;;;1999.90;999.90;;;;;;;16.27;83.08;100155.84;5091888;28;20506;-39
2021/10/04 09:04:19;;;;;;;1999.90;999.90;;;;;;;16.34;86.68;100152.06;5091611;28;20028;-40
2021/10/04 09:06:45;;;;;;;1999.90;999.90;;;;;;;16.35;85.13;100154.47;5091665;28;20058;-39
2021/10/04 09:09:14;;;;;;;1999.90;999.90;;;;;;;16.51;82.35;100149.88;5091834;28;20035;-39
2021/10/04 09:11:48;;;;;;;1999.90;999.90;;;;;;;16.42;76.88;100149.63;5091719;28;20038;-40
2021/10/04 09:14:30;;;;;;;1999.90;999.90;;;;;;;16.39;79.60;100157.44;5091709;28;20024;-38
2021/10/04 09:17:07;;;;;;;1999.90;999.90;;;;;;;16.71;82.08;100153.63;5092023;28;20097;-38
2021/10/04 09:19:37;;;;;;;1999.90;999.90;;;;;;;16.73;82.00;100148.75;5092010;28;20044;-38
2021/10/04 09:22:16;;;;;;;1999.90;999.90;;;;;;;16.87;79.02;100143.59;5090099;28;20109;-41
2021/10/04 09:24:57;;;;;;;1999.90;999.90;;;;;;;17.06;81.15;100130.34;5091512;28;20028;-38
2021/10/04 09:27:26;;;;;;;1999.90;999.90;;;;;;;17.22;73.15;100133.78;5091639;28;20032;-39
2021/10/04 09:29:52;;;;;;;1999.90;999.90;;;;;;;17.11;73.61;100141.13;5091542;28;20511;-40
2021/10/04 09:32:26;;;;;;;1999.90;999.90;;;;;;;17.13;74.54;100131.69;5091810;28;20450;-39
2021/10/04 09:35:23;;;;;;;1999.90;999.90;;;;;;;17.17;78.17;100123.03;5091556;28;20024;-40
2021/10/04 09:38:16;;;;;;;1999.90;999.90;;;;;;;17.30;69.20;100134.00;5091542;28;20158;-40
2021/10/04 09:40:44;;;;;;;1999.90;999.90;;;;;;;17.45;72.43;100130.41;5087095;28;20529;-38
2021/10/04 09:43:31;;;;;;;1999.90;999.90;;;;;;;17.49;72.64;100134.16;5091376;28;20035;-40
2021/10/04 09:46:02;;;;;;;1999.90;999.90;;;;;;;17.33;68.21;100135.34;5091312;28;20032;-36
2021/10/04 09:48:28;;;;;;;1999.90;999.90;;;;;;;17.23;71.42;100124.63;5091401;28;20024;-38
2021/10/04 09:50:54;;;;;;;1999.90;999.90;;;;;;;17.33;80.42;100121.88;5091411;28;20027;-38
2021/10/04 09:53:20;;;;;;;1999.90;999.90;;;;;;;17.23;76.01;100130.81;5091619;28;20042;-40
2021/10/04 09:55:48;;;;;;;1999.90;999.90;;;;;;;17.33;78.98;100126.47;5091300;28;20027;-37
2021/10/04 09:58:31;;;;;;;1999.90;999.90;;;;;;;17.08;72.45;100128.19;5091594;28;20086;-39
2021/10/04 10:01:03;;;;;;;1999.90;999.90;;;;;;;17.18;78.39;100125.47;5094854;28;20085;-37
2021/10/04 10:03:37;;;;;;;1999.90;999.90;;;;;;;17.18;72.69;100117.38;5094829;28;20557;-38
2021/10/04 10:06:03;;;;;;;1999.90;999.90;;;;;;;17.17;79.37;100118.44;5095091;28;20395;-37
2021/10/04 10:08:30;;;;;;;1999.90;999.90;;;;;;;17.16;79.45;100124.91;5095092;28;20397;-39
2021/10/04 10:10:59;;;;;;;1999.90;999.90;;;;;;;17.30;81.82;100117.84;5094713;28;20524;-39
2021/10/04 10:13:27;;;;;;;1999.90;999.90;;;;;;;17.30;80.57;100117.03;5094614;28;20030;-39
2021/10/04 10:16:00;;;;;;;1999.90;999.90;;;;;;;17.27;76.59;100112.22;5094674;28;20020;-40
2021/10/04 10:18:33;;;;;;;1999.90;999.90;;;;;;;17.28;80.54;100111.94;5094930;28;20459;-38
2021/10/04 10:21:04;;;;;;;1999.90;999.90;;;;;;;17.25;83.62;100120.56;5094831;28;20016;-40
2021/10/04 10:23:50;;;;;;;1999.90;999.90;;;;;;;17.21;81.01;100121.41;5094675;28;20127;-40
2021/10/04 10:26:27;;;;;;;1999.90;999.90;;;;;;;17.08;83.64;100117.44;5094372;28;20032;-39
2021/10/04 10:29:20;;;;;;;1999.90;999.90;;;;;;;17.19;83.32;100113.59;5094420;28;20020;-40
2021/10/04 10:31:52;;;;;;;1999.90;999.90;;;;;;;17.24;84.77;100105.50;5094651;28;20032;-39
2021/10/04 10:34:30;;;;;;;1999.90;999.90;;;;;;;17.07;85.96;100094.28;5094235;28;20101;-39
2021/10/04 10:37:07;;;;;;;1999.90;999.90;;;;;;;17.19;87.97;100102.81;5094285;28;20496;-40
2021/10/04 10:39:35;;;;;;;1999.90;999.90;;;;;;;17.19;89.08;100100.13;5094254;28;20054;-39
2021/10/04 10:42:21;;;;;;;1999.90;999.90;;;;;;;17.26;86.55;100091.75;5094190;28;20034;-40